Fort Bridger, Wyoming
Current Conditions -  °F | °C
As of 2:35 AM on Monday 24 Nov 2014 (Local Time) from KFBR Reporting Station
Broken Clouds Broken Clouds  
Wind Chill: -13°   Ceiling: 4900
Heat Index: -4°   Visibility: 10mi
Dew Point: -6°   Wind: 29mph
Humidity: 88%   Direction: 260°W
Pressure: 30.04"   Gusts: 44mph
Location:  41.32°N, 110.39°W
Report Text: KFBR 240935Z AUTO 26025G38KT 10SM SCT021 BKN049 BKN065 M04/M06 A3004 RMK AO2 T10401057
Loading
Personal Weather Stations






























Interactive Weather Map New forecast layout! Learn more

10-Day Weather Forecast

Advertisements
Track Severe Weather on mobile